Time;durP1;ratioP1;P1;durP2;ratioP2;P2;SDS_P1;SDS_P2;PMS_P1;PMS_P2;Temp;Humidity;BMP_temperature;BMP_pressure;BME280_temperature;BME280_humidity;BME280_pressure;Samples;Min_cycle;Max_cycle;Signal;HPM_P1;HPM_P2
2023/08/29 00:01:44;;;;;;;11.30;6.43;;;25.40;99.90;;;;;;4959882;28;20055;-84
2023/08/29 00:04:11;;;;;;;13.00;6.00;;;25.30;99.90;;;;;;4960384;28;20506;-84
2023/08/29 00:06:38;;;;;;;11.00;5.25;;;25.30;99.90;;;;;;4965372;28;20062;-84
2023/08/29 00:09:06;;;;;;;10.60;6.32;;;25.30;99.90;;;;;;4943892;28;20069;-85
2023/08/29 00:11:33;;;;;;;10.68;6.45;;;25.30;99.90;;;;;;4955570;28;20057;-85
2023/08/29 00:14:00;;;;;;;8.98;5.45;;;25.30;99.90;;;;;;4952935;28;20600;-85
2023/08/29 00:16:27;;;;;;;10.32;5.93;;;25.20;99.90;;;;;;4939931;28;20126;-85
2023/08/29 00:18:54;;;;;;;10.65;5.50;;;25.20;99.90;;;;;;4968875;28;20053;-84
2023/08/29 00:21:21;;;;;;;9.93;6.05;;;25.20;99.90;;;;;;4971853;28;20464;-84
2023/08/29 00:23:48;;;;;;;10.23;5.10;;;25.30;99.90;;;;;;4957495;28;20094;-84
2023/08/29 00:26:15;;;;;;;12.18;5.90;;;25.20;99.90;;;;;;4956485;28;20050;-86
2023/08/29 00:28:44;;;;;;;11.82;5.90;;;25.20;99.90;;;;;;4956308;28;20057;-85
2023/08/29 00:31:11;;;;;;;10.40;5.07;;;25.20;99.90;;;;;;4964448;28;20126;-84
2023/08/29 00:33:38;;;;;;;9.10;5.18;;;25.20;99.90;;;;;;4961985;28;20081;-85
2023/08/29 00:36:05;;;;;;;17.30;6.80;;;25.10;99.90;;;;;;4960731;28;20054;-84
2023/08/29 00:38:33;;;;;;;10.40;6.35;;;25.10;99.90;;;;;;4960824;28;25455;-84
2023/08/29 00:41:00;;;;;;;12.05;5.90;;;25.10;99.90;;;;;;4955515;28;20047;-84
2023/08/29 00:43:29;;;;;;;12.70;6.13;;;25.10;99.90;;;;;;4953557;28;20102;-85
2023/08/29 00:45:57;;;;;;;9.18;5.47;;;25.10;99.90;;;;;;4955879;28;20043;-84
2023/08/29 00:48:25;;;;;;;11.93;6.53;;;25.10;99.90;;;;;;4961740;28;20046;-84
2023/08/29 00:50:55;;;;;;;12.85;6.55;;;25.00;99.90;;;;;;4954418;28;20078;-84
2023/08/29 00:53:24;;;;;;;10.40;5.55;;;25.00;99.90;;;;;;4955225;28;20047;-85
2023/08/29 00:55:52;;;;;;;9.85;5.70;;;25.10;99.90;;;;;;4969742;28;20069;-82
2023/08/29 00:58:19;;;;;;;14.60;5.82;;;25.10;99.90;;;;;;4949237;28;20051;-81
2023/08/29 01:00:48;;;;;;;13.05;6.88;;;25.10;99.90;;;;;;4956891;28;20109;-82
2023/08/29 01:03:15;;;;;;;12.38;7.00;;;25.10;99.90;;;;;;4971618;28;20053;-82
2023/08/29 01:05:42;;;;;;;12.90;6.72;;;25.00;99.90;;;;;;4943230;28;20167;-82
2023/08/29 01:08:12;;;;;;;11.63;6.43;;;25.00;99.90;;;;;;4962160;28;20190;-82
2023/08/29 01:11:03;;;;;;;15.55;7.43;;;24.80;99.90;;;;;;4947678;28;20047;-82
2023/08/29 01:13:54;;;;;;;12.30;6.55;;;24.80;99.90;;;;;;4962135;28;20047;-83
2023/08/29 01:16:27;;;;;;;10.60;6.40;;;24.70;99.90;;;;;;4958233;28;20070;-82
2023/08/29 01:18:55;;;;;;;12.48;6.03;;;24.70;99.90;;;;;;4961923;28;21837;-83
2023/08/29 01:21:29;;;;;;;11.85;6.97;;;24.70;99.90;;;;;;4955385;28;20039;-82
2023/08/29 01:24:04;;;;;;;12.32;6.72;;;24.70;99.90;;;;;;4959034;28;20051;-82
2023/08/29 01:26:32;;;;;;;12.60;7.18;;;24.60;99.90;;;;;;4955639;28;20051;-83
2023/08/29 01:29:02;;;;;;;14.45;6.78;;;24.50;99.90;;;;;;4966993;28;20047;-83
2023/08/29 01:31:31;;;;;;;12.82;6.28;;;24.30;99.90;;;;;;4943550;28;20043;-84
2023/08/29 01:34:00;;;;;;;9.98;6.32;;;24.40;99.90;;;;;;4950838;28;20566;-84
2023/08/29 01:36:37;;;;;;;11.38;6.68;;;24.40;99.90;;;;;;4944857;28;20154;-84
2023/08/29 01:39:04;;;;;;;14.13;6.50;;;24.40;99.90;;;;;;4952500;28;20109;-83
2023/08/29 01:41:31;;;;;;;12.90;6.30;;;24.40;99.90;;;;;;4956822;28;20079;-84
2023/08/29 01:44:02;;;;;;;14.35;6.57;;;24.40;99.90;;;;;;4971734;28;20066;-83
2023/08/29 01:46:30;;;;;;;13.77;5.97;;;24.40;99.90;;;;;;4954218;28;20046;-84
2023/08/29 01:49:00;;;;;;;13.70;7.35;;;24.40;99.90;;;;;;4957314;28;21965;-83
2023/08/29 01:51:27;;;;;;;14.20;6.43;;;24.40;99.90;;;;;;4940800;28;20802;-84
2023/08/29 01:53:55;;;;;;;10.07;6.25;;;24.40;99.90;;;;;;4954361;28;20128;-83
2023/08/29 01:56:27;;;;;;;11.45;5.75;;;24.30;99.90;;;;;;4968437;28;20165;-83
2023/08/29 01:58:56;;;;;;;12.13;6.05;;;24.30;99.90;;;;;;4947390;28;20125;-83
2023/08/29 02:01:23;;;;;;;13.23;7.03;;;24.30;99.90;;;;;;4959385;28;20062;-84
2023/08/29 02:03:52;;;;;;;10.70;6.13;;;24.30;99.90;;;;;;4953599;28;20063;-84
2023/08/29 02:06:19;;;;;;;13.05;6.97;;;24.20;99.90;;;;;;4961504;28;20053;-84
2023/08/29 02:08:46;;;;;;;15.05;7.68;;;24.20;99.90;;;;;;4956166;28;20110;-84
2023/08/29 02:11:13;;;;;;;11.02;6.30;;;24.20;99.90;;;;;;4945157;28;20134;-84
2023/08/29 02:13:41;;;;;;;8.50;5.43;;;24.20;99.90;;;;;;4958324;28;20062;-84
2023/08/29 02:16:08;;;;;;;13.18;6.10;;;24.30;99.90;;;;;;4962518;28;20099;-84
2023/08/29 02:18:35;;;;;;;12.00;5.88;;;24.30;99.90;;;;;;4977117;28;21334;-84
2023/08/29 02:21:03;;;;;;;11.70;5.85;;;24.30;99.90;;;;;;4972211;28;20097;-84
2023/08/29 02:23:31;;;;;;;10.75;6.25;;;24.30;99.90;;;;;;4956245;28;20051;-85
2023/08/29 02:26:02;;;;;;;11.50;6.60;;;24.20;99.90;;;;;;4959600;28;20227;-84
2023/08/29 02:28:35;;;;;;;10.60;6.03;;;24.30;99.90;;;;;;4940323;28;20043;-84
2023/08/29 02:31:03;;;;;;;12.80;6.80;;;24.20;99.90;;;;;;4954329;28;20067;-84
2023/08/29 02:33:31;;;;;;;15.45;6.85;;;24.20;99.90;;;;;;4953999;28;20069;-84
2023/08/29 02:35:58;;;;;;;10.60;6.68;;;24.20;99.90;;;;;;4958331;28;20047;-84
2023/08/29 02:38:26;;;;;;;11.13;6.15;;;24.20;99.90;;;;;;4948636;28;20066;-84
2023/08/29 02:40:53;;;;;;;12.38;5.80;;;24.20;99.90;;;;;;4953531;28;20039;-84
2023/08/29 02:43:20;;;;;;;10.98;6.40;;;24.20;99.90;;;;;;4946926;28;20050;-84
2023/08/29 02:45:50;;;;;;;11.20;6.10;;;24.20;99.90;;;;;;4960097;28;20410;-84
2023/08/29 02:48:17;;;;;;;12.88;7.63;;;24.30;99.90;;;;;;4955766;28;20090;-84
2023/08/29 02:50:48;;;;;;;11.68;6.20;;;24.20;99.90;;;;;;4961343;28;20070;-84
2023/08/29 02:53:16;;;;;;;12.02;5.88;;;24.20;99.90;;;;;;4952629;28;20047;-84
2023/08/29 02:55:44;;;;;;;10.18;5.95;;;24.20;99.90;;;;;;4970749;28;20055;-83
2023/08/29 02:58:12;;;;;;;11.57;5.13;;;24.20;99.90;;;;;;4960573;28;20051;-84
2023/08/29 03:00:40;;;;;;;9.77;5.32;;;24.10;99.90;;;;;;4955181;28;20064;-84
2023/08/29 03:03:07;;;;;;;10.43;5.22;;;24.10;99.90;;;;;;4960654;28;22821;-85
2023/08/29 03:05:34;;;;;;;6.97;4.65;;;24.10;99.90;;;;;;4957904;28;20106;-84
2023/08/29 03:08:04;;;;;;;10.15;5.47;;;24.10;99.90;;;;;;4946695;28;20083;-84
2023/08/29 03:10:36;;;;;;;9.55;4.93;;;24.10;99.90;;;;;;4950641;28;20102;-84
2023/08/29 03:13:04;;;;;;;8.45;4.85;;;24.10;99.90;;;;;;4962579;28;20055;-85
2023/08/29 03:15:33;;;;;;;11.68;5.00;;;24.10;99.90;;;;;;4943178;28;20046;-84
2023/08/29 03:18:03;;;;;;;7.25;4.70;;;24.10;99.90;;;;;;4955352;28;20042;-84
2023/08/29 03:20:31;;;;;;;8.70;4.90;;;24.10;99.90;;;;;;4944013;28;20094;-85
2023/08/29 03:22:58;;;;;;;9.80;4.90;;;24.10;99.90;;;;;;4957858;28;20047;-85
2023/08/29 03:25:25;;;;;;;8.70;5.35;;;24.10;99.90;;;;;;4945107;28;20074;-85
2023/08/29 03:27:52;;;;;;;9.70;5.50;;;24.10;99.90;;;;;;4969831;28;20047;-85
2023/08/29 03:30:20;;;;;;;8.40;4.07;;;24.10;99.90;;;;;;4950789;28;20057;-85
2023/08/29 03:32:50;;;;;;;10.57;4.85;;;24.10;99.90;;;;;;4955864;28;20410;-85
2023/08/29 03:35:17;;;;;;;7.38;4.28;;;24.10;99.90;;;;;;4971382;28;20042;-85
2023/08/29 03:37:45;;;;;;;11.77;4.90;;;24.10;99.90;;;;;;4958767;28;20161;-85
2023/08/29 03:40:13;;;;;;;8.15;5.13;;;24.00;99.90;;;;;;4958087;28;20046;-84
2023/08/29 03:42:40;;;;;;;11.73;5.38;;;24.10;99.90;;;;;;4950002;28;20050;-84
2023/08/29 03:45:08;;;;;;;8.38;4.32;;;24.00;99.90;;;;;;4947327;28;20137;-85
2023/08/29 03:47:38;;;;;;;13.73;5.43;;;24.00;99.90;;;;;;4949034;28;20062;-85
2023/08/29 03:50:06;;;;;;;9.73;5.15;;;24.00;99.90;;;;;;4954793;28;20548;-85
2023/08/29 03:52:33;;;;;;;8.38;4.65;;;24.00;99.90;;;;;;4950302;28;20513;-85
2023/08/29 03:55:00;;;;;;;6.30;4.47;;;24.00;99.90;;;;;;4945257;28;20507;-85
2023/08/29 03:57:27;;;;;;;7.65;4.63;;;24.00;99.90;;;;;;4955635;28;23363;-85
2023/08/29 03:59:55;;;;;;;11.18;4.43;;;24.00;99.90;;;;;;4962974;28;20329;-84
2023/08/29 04:02:22;;;;;;;10.88;4.50;;;23.90;99.90;;;;;;4957215;28;20051;-84
2023/08/29 04:04:51;;;;;;;11.35;5.03;;;23.90;99.90;;;;;;4962779;28;20565;-84
2023/08/29 04:07:20;;;;;;;7.43;4.38;;;23.90;99.90;;;;;;4949652;28;20058;-85
2023/08/29 04:09:47;;;;;;;10.85;5.38;;;23.90;99.90;;;;;;4948232;28;20513;-84
2023/08/29 04:12:14;;;;;;;13.80;4.97;;;23.80;99.90;;;;;;4951408;28;20058;-85
2023/08/29 04:14:41;;;;;;;11.40;4.90;;;23.80;99.90;;;;;;4945333;28;20122;-84
2023/08/29 04:17:08;;;;;;;7.28;4.72;;;23.80;99.90;;;;;;4958865;28;20051;-84
2023/08/29 04:19:35;;;;;;;7.25;4.30;;;23.80;99.90;;;;;;4958706;28;20051;-84
2023/08/29 04:22:03;;;;;;;11.25;4.93;;;23.80;99.90;;;;;;4962450;28;20186;-85
2023/08/29 04:24:30;;;;;;;11.13;5.45;;;23.80;99.90;;;;;;4973142;28;20105;-84
2023/08/29 04:26:57;;;;;;;9.60;4.45;;;23.80;99.90;;;;;;4954184;28;20062;-84
2023/08/29 04:29:25;;;;;;;15.60;5.97;;;23.90;99.90;;;;;;4955523;28;20421;-84
2023/08/29 04:31:52;;;;;;;11.77;5.25;;;23.80;99.90;;;;;;4954524;28;22909;-84
2023/08/29 04:34:23;;;;;;;11.15;5.03;;;23.80;99.90;;;;;;4958018;28;20046;-84
2023/08/29 04:36:51;;;;;;;10.43;4.97;;;23.80;99.90;;;;;;4949807;28;20070;-85
2023/08/29 04:39:20;;;;;;;10.55;4.68;;;23.80;99.90;;;;;;4968588;28;20055;-85
2023/08/29 04:41:50;;;;;;;12.68;5.75;;;23.80;99.90;;;;;;4966757;28;20055;-84
2023/08/29 04:44:17;;;;;;;11.20;5.68;;;23.80;99.90;;;;;;4974394;28;20046;-84
2023/08/29 04:46:44;;;;;;;14.40;5.05;;;23.80;99.90;;;;;;4973223;28;20130;-84
2023/08/29 04:49:11;;;;;;;9.45;4.88;;;23.80;99.90;;;;;;4956012;28;20050;-84
2023/08/29 04:51:38;;;;;;;10.70;5.47;;;23.80;99.90;;;;;;4949134;28;20106;-84
2023/08/29 04:54:06;;;;;;;10.57;5.50;;;23.70;99.90;;;;;;4954743;28;20126;-84
2023/08/29 04:56:33;;;;;;;14.55;5.45;;;23.80;99.90;;;;;;4952128;28;20062;-84
2023/08/29 04:59:01;;;;;;;12.60;5.07;;;23.80;99.90;;;;;;4954004;28;20047;-83
2023/08/29 05:01:28;;;;;;;11.60;5.88;;;23.80;99.90;;;;;;4956032;28;20450;-83
2023/08/29 05:03:55;;;;;;;11.68;6.03;;;23.80;99.90;;;;;;4969876;28;20055;-84
2023/08/29 05:06:25;;;;;;;12.40;5.15;;;23.80;99.90;;;;;;4959587;28;20063;-84
2023/08/29 05:08:52;;;;;;;11.20;4.78;;;23.80;99.90;;;;;;4970894;28;20051;-84
2023/08/29 05:11:19;;;;;;;8.10;5.13;;;23.90;99.90;;;;;;4958326;28;20994;-84
2023/08/29 05:13:47;;;;;;;10.90;5.00;;;23.80;99.90;;;;;;4962959;28;20066;-84
2023/08/29 05:16:14;;;;;;;10.40;5.13;;;23.80;99.90;;;;;;4970924;28;20043;-84
2023/08/29 05:18:41;;;;;;;10.23;5.68;;;23.70;99.90;;;;;;4959423;28;20512;-84
2023/08/29 05:21:08;;;;;;;10.05;4.80;;;23.70;99.90;;;;;;4949151;28;20047;-84
2023/08/29 05:23:36;;;;;;;9.27;4.95;;;23.60;99.90;;;;;;4968312;28;20043;-84
2023/08/29 05:26:04;;;;;;;9.27;5.43;;;23.70;99.90;;;;;;4955564;28;20135;-83
2023/08/29 05:28:32;;;;;;;10.38;6.00;;;23.80;99.90;;;;;;4959179;28;20043;-81
2023/08/29 05:30:59;;;;;;;12.10;5.68;;;23.70;99.90;;;;;;4953576;28;20130;-84
2023/08/29 05:33:29;;;;;;;10.50;5.80;;;23.50;99.90;;;;;;4950868;28;23039;-85
2023/08/29 05:35:56;;;;;;;10.73;5.78;;;23.80;99.90;;;;;;4979741;28;20137;-84
2023/08/29 05:38:25;;;;;;;12.30;5.90;;;23.80;99.90;;;;;;4947185;28;20055;-85
2023/08/29 05:40:52;;;;;;;9.30;6.55;;;23.80;99.90;;;;;;4956415;28;20051;-85
2023/08/29 05:43:20;;;;;;;13.15;6.45;;;23.90;99.90;;;;;;4945598;28;20062;-85
2023/08/29 05:45:47;;;;;;;9.85;5.90;;;24.00;99.90;;;;;;4957219;28;20058;-85
2023/08/29 05:48:14;;;;;;;12.13;5.95;;;24.00;99.90;;;;;;4943176;28;20102;-84
2023/08/29 05:50:41;;;;;;;12.50;5.78;;;24.00;99.90;;;;;;4951805;28;20130;-84
2023/08/29 05:53:09;;;;;;;19.17;6.72;;;24.00;99.90;;;;;;4955113;28;20575;-85
2023/08/29 05:55:36;;;;;;;11.38;5.97;;;24.00;99.90;;;;;;4960416;28;20051;-84
2023/08/29 05:58:03;;;;;;;15.10;6.70;;;24.00;99.90;;;;;;4935600;28;20047;-83
2023/08/29 06:00:32;;;;;;;12.10;6.72;;;23.80;99.90;;;;;;4950646;28;20051;-85
2023/08/29 06:03:01;;;;;;;8.90;5.43;;;23.90;99.90;;;;;;4940825;28;22866;-84
2023/08/29 06:05:28;;;;;;;12.15;6.60;;;24.00;99.90;;;;;;4959107;28;20076;-84
2023/08/29 06:07:55;;;;;;;10.65;5.95;;;24.10;99.90;;;;;;4951506;28;20057;-84
2023/08/29 06:10:43;;;;;;;10.93;6.60;;;24.10;99.90;;;;;;4953959;28;20034;-85
2023/08/29 06:13:10;;;;;;;11.82;5.55;;;24.10;99.90;;;;;;4955289;28;20475;-85
2023/08/29 06:15:38;;;;;;;8.38;5.65;;;24.10;99.90;;;;;;4951996;28;20047;-85
2023/08/29 06:18:05;;;;;;;9.13;5.07;;;24.10;99.90;;;;;;4942891;28;20445;-85
2023/08/29 06:20:32;;;;;;;13.65;6.00;;;24.10;99.90;;;;;;4951054;28;20043;-85
2023/08/29 06:23:00;;;;;;;12.25;6.03;;;24.10;99.90;;;;;;4954380;28;20067;-85
2023/08/29 06:25:28;;;;;;;9.88;5.90;;;24.10;99.90;;;;;;4959656;28;20519;-85
2023/08/29 06:27:55;;;;;;;11.35;5.50;;;24.10;99.90;;;;;;4959048;28;20059;-84
2023/08/29 06:30:23;;;;;;;11.10;6.22;;;24.00;99.90;;;;;;4949038;28;20076;-85
2023/08/29 06:32:50;;;;;;;10.02;5.72;;;23.90;99.90;;;;;;4951403;28;22877;-83
2023/08/29 06:35:17;;;;;;;11.57;6.63;;;23.80;99.90;;;;;;4953047;28;20159;-83
2023/08/29 06:37:44;;;;;;;16.17;5.97;;;23.80;99.90;;;;;;4951188;28;20562;-85
2023/08/29 06:40:12;;;;;;;13.73;6.82;;;23.80;99.90;;;;;;4956576;28;20047;-83
2023/08/29 06:42:39;;;;;;;14.50;7.38;;;23.80;99.90;;;;;;4946730;28;20061;-85
2023/08/29 06:45:08;;;;;;;10.63;5.97;;;23.90;99.90;;;;;;4962166;28;20051;-85
2023/08/29 06:47:35;;;;;;;12.48;6.30;;;23.90;99.90;;;;;;4959219;28;20138;-84
2023/08/29 06:50:03;;;;;;;8.93;5.50;;;23.90;99.90;;;;;;4965238;28;21629;-80
2023/08/29 06:52:30;;;;;;;11.40;5.35;;;23.90;99.90;;;;;;4970089;28;21057;-79
2023/08/29 06:54:57;;;;;;;13.00;7.03;;;23.80;99.90;;;;;;4971794;28;20059;-78
2023/08/29 06:57:26;;;;;;;17.88;7.88;;;23.80;99.90;;;;;;4945580;28;20048;-78
2023/08/29 06:59:53;;;;;;;12.70;7.35;;;23.70;99.90;;;;;;4970398;28;20055;-78
2023/08/29 07:02:20;;;;;;;15.65;6.80;;;23.50;99.90;;;;;;4958875;28;20150;-79
2023/08/29 07:04:47;;;;;;;14.23;7.22;;;23.60;99.90;;;;;;4965210;28;23107;-78
2023/08/29 07:07:15;;;;;;;13.25;8.23;;;23.50;99.90;;;;;;4957127;28;20046;-80
2023/08/29 07:09:43;;;;;;;13.40;7.82;;;23.50;99.90;;;;;;4953733;28;20102;-80
2023/08/29 07:12:10;;;;;;;13.32;7.05;;;23.40;99.90;;;;;;4962196;28;20075;-81
2023/08/29 07:14:37;;;;;;;13.13;6.63;;;23.50;99.90;;;;;;4960566;28;20051;-81
2023/08/29 07:17:06;;;;;;;16.33;6.72;;;23.40;99.90;;;;;;4970122;28;20941;-82
2023/08/29 07:19:38;;;;;;;17.05;7.65;;;23.40;99.90;;;;;;4958726;28;20086;-81
2023/08/29 07:22:06;;;;;;;16.13;8.57;;;23.40;99.90;;;;;;4960505;28;20106;-83
2023/08/29 07:24:50;;;;;;;12.57;7.55;;;23.40;99.90;;;;;;4966959;28;20137;-83
2023/08/29 07:27:18;;;;;;;15.55;8.32;;;23.40;99.90;;;;;;4944154;28;20073;-83
2023/08/29 07:29:45;;;;;;;13.75;7.72;;;23.40;99.90;;;;;;4957690;28;20039;-84
2023/08/29 07:32:12;;;;;;;16.33;7.47;;;23.40;99.90;;;;;;4965118;28;20070;-84
2023/08/29 07:34:39;;;;;;;14.88;8.95;;;23.40;99.90;;;;;;4963448;28;20051;-84
2023/08/29 07:37:08;;;;;;;16.60;8.63;;;23.40;99.90;;;;;;4959845;28;20058;-84
2023/08/29 07:39:35;;;;;;;12.15;7.70;;;23.40;99.90;;;;;;4973240;28;20047;-84
2023/08/29 07:42:02;;;;;;;15.02;8.55;;;23.40;99.90;;;;;;4961358;28;20059;-83
2023/08/29 07:44:31;;;;;;;15.82;7.70;;;23.20;99.90;;;;;;4957770;28;20059;-83
2023/08/29 07:46:58;;;;;;;16.00;8.85;;;23.20;99.90;;;;;;4960169;28;20057;-85
2023/08/29 07:49:42;;;;;;;14.13;8.38;;;23.30;99.90;;;;;;4953511;28;20399;-86
2023/08/29 07:52:09;;;;;;;13.77;7.57;;;23.30;99.90;;;;;;4955199;28;20043;-85
2023/08/29 07:54:37;;;;;;;18.63;8.63;;;23.40;99.90;;;;;;4953328;28;20062;-86
2023/08/29 07:57:06;;;;;;;15.18;8.63;;;23.20;99.90;;;;;;4961346;28;20062;-85
2023/08/29 07:59:33;;;;;;;16.13;8.50;;;23.30;99.90;;;;;;4950490;28;20135;-85
2023/08/29 08:02:01;;;;;;;15.13;7.53;;;23.30;99.90;;;;;;4972866;28;20042;-84
2023/08/29 08:04:28;;;;;;;15.75;8.27;;;23.40;99.90;;;;;;4942685;28;20055;-86
2023/08/29 08:06:55;;;;;;;16.33;9.20;;;23.30;99.90;;;;;;4944921;28;20069;-85
2023/08/29 08:09:22;;;;;;;15.93;8.15;;;23.20;99.90;;;;;;4955644;28;20089;-86
2023/08/29 08:11:49;;;;;;;14.68;8.70;;;23.30;99.90;;;;;;4956941;28;20149;-85
2023/08/29 08:14:17;;;;;;;17.02;8.75;;;23.40;99.90;;;;;;4953197;28;20437;-85
2023/08/29 08:16:44;;;;;;;12.75;7.93;;;23.40;99.90;;;;;;4955228;28;20134;-85
2023/08/29 08:19:11;;;;;;;17.83;7.68;;;23.50;99.90;;;;;;4959127;28;20086;-86
2023/08/29 08:21:38;;;;;;;13.27;7.70;;;23.40;99.90;;;;;;4951819;28;20137;-85
2023/08/29 08:24:08;;;;;;;15.23;8.13;;;23.40;99.90;;;;;;4967681;28;20043;-85
2023/08/29 08:26:35;;;;;;;13.27;8.27;;;23.40;99.90;;;;;;4952355;28;20053;-85
2023/08/29 08:29:04;;;;;;;14.15;7.88;;;23.40;99.90;;;;;;4970005;28;20510;-86
2023/08/29 08:31:32;;;;;;;22.40;9.73;;;23.30;99.90;;;;;;4957081;28;20039;-83
2023/08/29 08:33:59;;;;;;;15.93;7.80;;;23.30;99.90;;;;;;4958478;28;20047;-85
2023/08/29 08:36:28;;;;;;;17.80;9.18;;;23.30;99.90;;;;;;4963656;28;20126;-84
2023/08/29 08:38:55;;;;;;;14.80;7.15;;;23.30;99.90;;;;;;4964865;28;20050;-82
2023/08/29 08:41:25;;;;;;;15.70;8.95;;;23.20;99.90;;;;;;4962982;28;20047;-83
2023/08/29 08:43:55;;;;;;;16.30;8.63;;;23.10;99.90;;;;;;4956348;28;20051;-83
2023/08/29 08:46:23;;;;;;;13.07;7.00;;;23.10;99.90;;;;;;4955704;28;20055;-80
2023/08/29 08:48:50;;;;;;;15.02;6.70;;;23.10;99.90;;;;;;4952527;28;20051;-82
2023/08/29 08:51:21;;;;;;;12.70;4.70;;;22.90;99.90;;;;;;4951975;28;20161;-80
2023/08/29 08:53:50;;;;;;;11.27;4.85;;;22.80;99.90;;;;;;4960768;28;20050;-82
2023/08/29 08:56:19;;;;;;;10.80;4.57;;;22.70;99.90;;;;;;4954743;28;20632;-81
2023/08/29 08:58:46;;;;;;;12.45;5.03;;;22.80;99.90;;;;;;4970697;28;20145;-81
2023/08/29 09:01:14;;;;;;;11.35;4.22;;;22.70;99.90;;;;;;4955432;28;20047;-81
2023/08/29 09:03:42;;;;;;;12.02;5.10;;;22.70;99.90;;;;;;4956814;28;20051;-82
2023/08/29 09:06:09;;;;;;;8.13;4.18;;;22.70;99.90;;;;;;4961463;28;20059;-82
2023/08/29 09:08:40;;;;;;;8.88;4.47;;;22.70;99.90;;;;;;4964250;28;20039;-81
2023/08/29 09:11:08;;;;;;;8.65;3.70;;;22.70;99.90;;;;;;4959254;28;20110;-82
2023/08/29 09:13:44;;;;;;;8.95;4.43;;;22.60;99.90;;;;;;4962843;28;20117;-81
2023/08/29 09:16:12;;;;;;;8.40;4.38;;;22.70;99.90;;;;;;4964400;28;20461;-81
2023/08/29 09:18:45;;;;;;;7.47;3.72;;;22.60;99.90;;;;;;4953707;28;20608;-81
2023/08/29 09:21:22;;;;;;;8.82;4.82;;;22.50;99.90;;;;;;4968888;28;21061;-81
2023/08/29 09:23:52;;;;;;;11.15;4.70;;;22.30;99.90;;;;;;4943241;28;20870;-81
2023/08/29 09:26:34;;;;;;;10.00;4.60;;;22.20;99.90;;;;;;4966828;28;20047;-81
2023/08/29 09:29:20;;;;;;;5.63;3.28;;;22.20;99.90;;;;;;4951679;28;20185;-80
2023/08/29 09:31:49;;;;;;;10.75;4.65;;;22.20;99.90;;;;;;4970332;28;20054;-81
2023/08/29 09:34:28;;;;;;;10.52;4.85;;;22.20;99.90;;;;;;4956332;28;20055;-83
2023/08/29 09:36:59;;;;;;;9.93;5.13;;;22.30;99.90;;;;;;4952715;28;20051;-82
2023/08/29 09:39:31;;;;;;;11.63;4.25;;;22.20;99.90;;;;;;4950460;28;20437;-83
2023/08/29 09:42:04;;;;;;;9.00;4.40;;;22.10;99.90;;;;;;4954753;28;20043;-84
2023/08/29 09:44:39;;;;;;;10.65;4.63;;;22.20;99.90;;;;;;4961400;28;20505;-84
2023/08/29 09:47:09;;;;;;;11.30;5.00;;;22.20;99.90;;;;;;4966657;28;20215;-81
2023/08/29 09:49:47;;;;;;;10.55;5.10;;;22.20;99.90;;;;;;4960844;28;22856;-80
2023/08/29 09:52:16;;;;;;;10.00;4.53;;;22.20;99.90;;;;;;4961491;28;20054;-78
2023/08/29 09:54:49;;;;;;;12.27;5.50;;;22.20;99.90;;;;;;4942525;28;20383;-81
2023/08/29 09:57:21;;;;;;;;;;;22.20;99.90;;;;;;4967845;28;20118;-78
2023/08/29 09:59:52;;;;;;;9.15;5.78;;;22.30;99.90;;;;;;4968491;28;20328;-80
2023/08/29 10:02:21;;;;;;;10.05;4.85;;;22.20;99.90;;;;;;4967785;28;20090;-79
2023/08/29 10:04:54;;;;;;;8.40;4.50;;;22.20;99.90;;;;;;4953452;28;20047;-79
2023/08/29 10:07:26;;;;;;;11.68;4.38;;;22.20;99.90;;;;;;4956503;28;20980;-79
2023/08/29 10:09:55;;;;;;;13.50;4.65;;;22.20;99.90;;;;;;4953664;28;20065;-78
2023/08/29 10:12:27;;;;;;;11.43;4.53;;;22.10;99.90;;;;;;4955665;28;20101;-80
2023/08/29 10:14:55;;;;;;;9.50;4.55;;;22.20;99.90;;;;;;4944377;28;20039;-78
2023/08/29 10:17:24;;;;;;;9.82;4.25;;;22.10;99.90;;;;;;4969983;28;20047;-79
2023/08/29 10:20:08;;;;;;;9.85;4.85;;;22.10;99.90;;;;;;4968815;28;20035;-78
2023/08/29 10:22:38;;;;;;;8.93;4.38;;;22.20;99.90;;;;;;4959874;28;20404;-79
2023/08/29 10:25:06;;;;;;;14.15;5.47;;;22.10;99.90;;;;;;4956244;28;20398;-78
2023/08/29 10:27:34;;;;;;;13.02;6.05;;;22.10;99.90;;;;;;4959347;28;20058;-78
2023/08/29 10:30:02;;;;;;;10.00;4.95;;;22.20;99.90;;;;;;4966706;28;20046;-79
2023/08/29 10:32:32;;;;;;;7.80;4.78;;;22.10;99.90;;;;;;4957900;28;20055;-80
2023/08/29 10:35:00;;;;;;;7.50;4.70;;;22.10;99.90;;;;;;4964529;28;20047;-81
2023/08/29 10:37:29;;;;;;;12.77;5.30;;;22.20;99.90;;;;;;4968791;28;20494;-80
2023/08/29 10:40:11;;;;;;;9.75;4.90;;;22.10;99.90;;;;;;4974769;28;20552;-79
2023/08/29 10:43:00;;;;;;;8.35;4.30;;;22.30;99.90;;;;;;4940664;28;20146;-80
2023/08/29 10:45:53;;;;;;;9.55;4.20;;;22.60;99.90;;;;;;4949487;28;20121;-79
2023/08/29 10:48:28;;;;;;;10.63;4.85;;;22.70;99.90;;;;;;4951113;28;20886;-80
2023/08/29 10:51:09;;;;;;;9.20;4.95;;;22.80;99.90;;;;;;4971584;28;20058;-79
2023/08/29 10:54:05;;;;;;;9.70;5.30;;;23.10;99.90;;;;;;4958055;28;20866;-79
2023/08/29 10:56:43;;;;;;;9.90;4.65;;;23.30;99.90;;;;;;4952396;28;20091;-80
2023/08/29 10:59:32;;;;;;;9.38;5.28;;;23.40;99.90;;;;;;4941214;28;20487;-78
2023/08/29 11:02:23;;;;;;;10.02;5.50;;;23.30;99.90;;;;;;4954170;28;20062;-79
2023/08/29 11:05:11;;;;;;;8.13;5.22;;;23.10;99.90;;;;;;4961423;28;20050;-79
2023/08/29 11:07:39;;;;;;;10.02;5.38;;;23.20;99.90;;;;;;4945770;28;20160;-80
2023/08/29 11:10:22;;;;;;;10.32;6.07;;;23.10;99.90;;;;;;4954592;28;20094;-80
2023/08/29 11:13:10;;;;;;;11.43;5.72;;;23.20;99.90;;;;;;4964463;28;20047;-80
2023/08/29 11:15:58;;;;;;;9.98;4.80;;;23.30;99.90;;;;;;4993373;28;20041;-81
2023/08/29 11:18:32;;;;;;;12.95;5.57;;;23.50;99.90;;;;;;4968988;28;20408;-79
2023/08/29 11:21:07;;;;;;;8.70;5.82;;;23.50;99.90;;;;;;4969515;28;20057;-82
2023/08/29 11:23:40;;;;;;;11.02;4.85;;;23.50;99.90;;;;;;4984240;28;20054;-80
2023/08/29 11:26:08;;;;;;;9.25;5.20;;;23.50;99.90;;;;;;4978274;28;20050;-80
2023/08/29 11:28:42;;;;;;;7.68;4.93;;;23.60;99.90;;;;;;4970078;28;20088;-77
2023/08/29 11:31:09;;;;;;;9.48;4.32;;;23.80;99.90;;;;;;4978855;28;20046;-80
2023/08/29 11:33:37;;;;;;;8.55;4.03;;;23.80;99.90;;;;;;4962508;28;20493;-82
2023/08/29 11:36:07;;;;;;;8.10;4.18;;;23.90;99.90;;;;;;4977883;28;20050;-80
2023/08/29 11:38:38;;;;;;;6.35;3.90;;;24.00;99.90;;;;;;4992346;28;20120;-80
2023/08/29 11:41:10;;;;;;;6.53;4.15;;;24.10;99.90;;;;;;4990622;28;20089;-83
2023/08/29 11:43:58;;;;;;;8.38;4.18;;;24.10;99.90;;;;;;4974767;28;20053;-83
2023/08/29 11:46:46;;;;;;;8.65;5.03;;;24.20;99.90;;;;;;4970515;28;20047;-83
2023/08/29 11:49:15;;;;;;;9.82;4.13;;;24.40;99.90;;;;;;4957189;28;20049;-85
2023/08/29 11:51:43;;;;;;;5.45;3.80;;;24.40;99.90;;;;;;4956001;28;20075;-79
2023/08/29 11:54:41;;;;;;;7.30;3.92;;;24.60;99.90;;;;;;4963267;28;20042;-83
2023/08/29 11:57:11;;;;;;;7.50;3.85;;;24.70;99.90;;;;;;4964111;28;20576;-81
2023/08/29 11:59:40;;;;;;;10.60;4.13;;;24.70;99.90;;;;;;4963288;28;20031;-82
2023/08/29 12:02:15;;;;;;;8.52;3.80;;;24.80;99.90;;;;;;4975949;28;20062;-79
2023/08/29 12:04:46;;;;;;;9.30;3.45;;;24.90;99.90;;;;;;4960663;28;20142;-80
2023/08/29 12:07:16;;;;;;;7.10;3.58;;;24.90;99.90;;;;;;4950619;28;20157;-80
2023/08/29 12:09:45;;;;;;;6.65;3.50;;;24.80;99.50;;;;;;4959989;28;20077;-79
2023/08/29 12:12:33;;;;;;;9.43;4.15;;;24.90;99.90;;;;;;4955585;28;20035;-83
2023/08/29 12:15:11;;;;;;;8.77;4.10;;;25.10;99.90;;;;;;4948463;28;22965;-80
2023/08/29 12:17:41;;;;;;;10.10;4.05;;;25.10;98.50;;;;;;4955636;28;20043;-81
2023/08/29 12:20:20;;;;;;;7.68;4.07;;;25.00;98.90;;;;;;4949154;28;20043;-79
2023/08/29 12:22:50;;;;;;;7.72;4.00;;;25.00;98.70;;;;;;4967044;28;20047;-80
2023/08/29 12:25:20;;;;;;;8.35;5.30;;;25.00;99.80;;;;;;4961829;28;20047;-79
2023/08/29 12:27:52;;;;;;;7.03;4.28;;;25.10;99.90;;;;;;4960253;28;20062;-79
2023/08/29 12:30:20;;;;;;;7.07;3.78;;;25.10;99.70;;;;;;4960029;28;20083;-80
2023/08/29 12:32:48;;;;;;;8.13;4.75;;;25.20;99.60;;;;;;4951994;28;20047;-80
2023/08/29 12:35:17;;;;;;;10.10;4.47;;;25.20;99.90;;;;;;4959527;28;20042;-82
2023/08/29 12:37:44;;;;;;;7.65;4.32;;;25.10;99.90;;;;;;4955385;28;20039;-82
2023/08/29 12:40:12;;;;;;;6.85;3.28;;;25.00;99.90;;;;;;4961398;28;20038;-81
2023/08/29 12:42:42;;;;;;;7.35;3.60;;;25.00;99.90;;;;;;4953942;28;20055;-81
2023/08/29 12:45:09;;;;;;;9.77;3.55;;;24.90;99.90;;;;;;4956786;28;20056;-82
2023/08/29 12:47:38;;;;;;;8.35;4.45;;;24.80;99.90;;;;;;4964729;28;20069;-82
2023/08/29 12:50:08;;;;;;;6.60;4.28;;;25.00;99.90;;;;;;4958390;28;22911;-83
2023/08/29 12:52:35;;;;;;;6.45;3.85;;;25.00;99.90;;;;;;4941672;28;20050;-81
2023/08/29 12:55:03;;;;;;;5.40;3.08;;;25.00;99.90;;;;;;4972403;28;20050;-79